sensor_id;sensor_type;location;lat;lon;timestamp;temperature;humidity
13052;DHT22;6592;47.484;9.726;2023-07-22T00:02:12;16.90;99.90
13052;DHT22;6592;47.484;9.726;2023-07-22T00:04:41;16.90;99.90
13052;DHT22;6592;47.484;9.726;2023-07-22T00:07:10;16.90;99.90
13052;DHT22;6592;47.484;9.726;2023-07-22T00:09:38;16.90;99.90
13052;DHT22;6592;47.484;9.726;2023-07-22T00:12:09;16.80;99.90
13052;DHT22;6592;47.484;9.726;2023-07-22T00:14:40;16.80;99.90
13052;DHT22;6592;47.484;9.726;2023-07-22T00:17:09;16.70;99.90
13052;DHT22;6592;47.484;9.726;2023-07-22T00:19:37;16.70;99.90
13052;DHT22;6592;47.484;9.726;2023-07-22T00:22:07;16.70;99.90
13052;DHT22;6592;47.484;9.726;2023-07-22T00:24:35;16.60;99.90
13052;DHT22;6592;47.484;9.726;2023-07-22T00:27:04;16.60;99.90
13052;DHT22;6592;47.484;9.726;2023-07-22T00:29:35;16.60;99.90
13052;DHT22;6592;47.484;9.726;2023-07-22T00:32:05;16.60;99.90
13052;DHT22;6592;47.484;9.726;2023-07-22T00:34:35;16.60;99.90
13052;DHT22;6592;47.484;9.726;2023-07-22T00:37:04;16.50;99.90
13052;DHT22;6592;47.484;9.726;2023-07-22T00:39:33;16.40;99.90
13052;DHT22;6592;47.484;9.726;2023-07-22T00:42:02;16.40;99.90
13052;DHT22;6592;47.484;9.726;2023-07-22T00:44:30;16.30;99.90
13052;DHT22;6592;47.484;9.726;2023-07-22T00:46:58;16.20;99.90
13052;DHT22;6592;47.484;9.726;2023-07-22T00:49:28;16.30;99.90
13052;DHT22;6592;47.484;9.726;2023-07-22T00:52:00;16.30;99.90
13052;DHT22;6592;47.484;9.726;2023-07-22T00:54:29;16.30;99.90
13052;DHT22;6592;47.484;9.726;2023-07-22T00:56:59;16.30;99.90
13052;DHT22;6592;47.484;9.726;2023-07-22T00:59:28;16.30;99.90
13052;DHT22;6592;47.484;9.726;2023-07-22T01:01:56;16.30;99.90
13052;DHT22;6592;47.484;9.726;2023-07-22T01:04:25;16.30;99.90
13052;DHT22;6592;47.484;9.726;2023-07-22T01:06:54;16.20;99.90
13052;DHT22;6592;47.484;9.726;2023-07-22T01:09:23;16.20;99.90
13052;DHT22;6592;47.484;9.726;2023-07-22T01:11:51;16.20;99.90
13052;DHT22;6592;47.484;9.726;2023-07-22T01:14:21;16.20;99.90
13052;DHT22;6592;47.484;9.726;2023-07-22T01:16:49;16.20;99.90
13052;DHT22;6592;47.484;9.726;2023-07-22T01:19:19;16.20;99.90
13052;DHT22;6592;47.484;9.726;2023-07-22T01:21:48;16.20;99.90
13052;DHT22;6592;47.484;9.726;2023-07-22T01:24:18;16.20;99.90
13052;DHT22;6592;47.484;9.726;2023-07-22T01:26:46;16.10;99.90
13052;DHT22;6592;47.484;9.726;2023-07-22T01:29:15;16.10;99.90
13052;DHT22;6592;47.484;9.726;2023-07-22T01:31:46;16.10;99.90
13052;DHT22;6592;47.484;9.726;2023-07-22T01:34:15;16.20;99.90
13052;DHT22;6592;47.484;9.726;2023-07-22T01:36:45;16.10;99.90
13052;DHT22;6592;47.484;9.726;2023-07-22T01:39:14;16.20;99.90
13052;DHT22;6592;47.484;9.726;2023-07-22T01:41:44;16.20;99.90
13052;DHT22;6592;47.484;9.726;2023-07-22T01:44:12;16.10;99.90
13052;DHT22;6592;47.484;9.726;2023-07-22T01:46:41;16.10;99.90
13052;DHT22;6592;47.484;9.726;2023-07-22T01:49:11;16.10;99.90
13052;DHT22;6592;47.484;9.726;2023-07-22T01:51:40;16.20;99.90
13052;DHT22;6592;47.484;9.726;2023-07-22T01:54:08;16.10;99.90
13052;DHT22;6592;47.484;9.726;2023-07-22T01:56:37;16.00;99.90
13052;DHT22;6592;47.484;9.726;2023-07-22T01:59:07;15.90;99.90
13052;DHT22;6592;47.484;9.726;2023-07-22T02:01:36;15.80;99.90
13052;DHT22;6592;47.484;9.726;2023-07-22T02:04:04;15.80;99.90
13052;DHT22;6592;47.484;9.726;2023-07-22T02:06:33;15.80;99.90
13052;DHT22;6592;47.484;9.726;2023-07-22T02:09:03;15.80;99.90
13052;DHT22;6592;47.484;9.726;2023-07-22T02:11:36;15.90;99.90
13052;DHT22;6592;47.484;9.726;2023-07-22T02:14:04;15.90;99.90
13052;DHT22;6592;47.484;9.726;2023-07-22T02:16:36;15.90;99.90
13052;DHT22;6592;47.484;9.726;2023-07-22T02:19:05;15.90;99.90
13052;DHT22;6592;47.484;9.726;2023-07-22T02:21:33;15.90;99.90
13052;DHT22;6592;47.484;9.726;2023-07-22T02:24:01;15.90;99.90
13052;DHT22;6592;47.484;9.726;2023-07-22T02:26:29;15.90;99.90
13052;DHT22;6592;47.484;9.726;2023-07-22T02:28:58;15.90;99.90
13052;DHT22;6592;47.484;9.726;2023-07-22T02:31:26;15.90;99.90
13052;DHT22;6592;47.484;9.726;2023-07-22T02:33:56;15.90;99.90
13052;DHT22;6592;47.484;9.726;2023-07-22T02:36:24;16.00;99.90
13052;DHT22;6592;47.484;9.726;2023-07-22T02:38:52;16.00;99.90
13052;DHT22;6592;47.484;9.726;2023-07-22T02:41:20;16.00;99.90
13052;DHT22;6592;47.484;9.726;2023-07-22T02:43:49;16.00;99.90
13052;DHT22;6592;47.484;9.726;2023-07-22T02:46:17;16.00;99.90
13052;DHT22;6592;47.484;9.726;2023-07-22T02:48:45;16.10;99.90
13052;DHT22;6592;47.484;9.726;2023-07-22T02:51:15;16.00;99.90
13052;DHT22;6592;47.484;9.726;2023-07-22T02:53:43;16.00;99.90
13052;DHT22;6592;47.484;9.726;2023-07-22T02:56:13;15.90;99.90
13052;DHT22;6592;47.484;9.726;2023-07-22T02:58:42;15.90;99.90
13052;DHT22;6592;47.484;9.726;2023-07-22T03:01:10;15.90;99.90
13052;DHT22;6592;47.484;9.726;2023-07-22T03:03:39;15.90;99.90
13052;DHT22;6592;47.484;9.726;2023-07-22T03:06:08;15.90;99.90
13052;DHT22;6592;47.484;9.726;2023-07-22T03:08:38;15.90;99.90
13052;DHT22;6592;47.484;9.726;2023-07-22T03:11:06;16.00;99.90
13052;DHT22;6592;47.484;9.726;2023-07-22T03:13:34;16.00;99.90
13052;DHT22;6592;47.484;9.726;2023-07-22T03:16:03;16.10;99.90
13052;DHT22;6592;47.484;9.726;2023-07-22T03:18:32;16.10;99.90
13052;DHT22;6592;47.484;9.726;2023-07-22T03:21:00;16.10;99.90
13052;DHT22;6592;47.484;9.726;2023-07-22T03:23:28;16.10;99.90
13052;DHT22;6592;47.484;9.726;2023-07-22T03:25:58;16.00;99.90
13052;DHT22;6592;47.484;9.726;2023-07-22T03:28:26;16.00;99.90
13052;DHT22;6592;47.484;9.726;2023-07-22T03:30:54;16.00;99.90
13052;DHT22;6592;47.484;9.726;2023-07-22T03:33:23;16.00;99.90
13052;DHT22;6592;47.484;9.726;2023-07-22T03:35:51;16.00;99.90
13052;DHT22;6592;47.484;9.726;2023-07-22T03:38:19;15.90;99.90
13052;DHT22;6592;47.484;9.726;2023-07-22T03:40:47;15.90;99.90
13052;DHT22;6592;47.484;9.726;2023-07-22T03:43:17;15.90;99.90
13052;DHT22;6592;47.484;9.726;2023-07-22T03:45:45;15.80;99.90
13052;DHT22;6592;47.484;9.726;2023-07-22T03:48:13;15.80;99.90
13052;DHT22;6592;47.484;9.726;2023-07-22T03:50:42;15.80;99.90
13052;DHT22;6592;47.484;9.726;2023-07-22T03:53:10;15.80;99.90
13052;DHT22;6592;47.484;9.726;2023-07-22T03:55:38;15.80;99.90
13052;DHT22;6592;47.484;9.726;2023-07-22T03:58:07;15.80;99.90
13052;DHT22;6592;47.484;9.726;2023-07-22T04:00:38;15.70;99.90
13052;DHT22;6592;47.484;9.726;2023-07-22T04:03:06;15.70;99.90
13052;DHT22;6592;47.484;9.726;2023-07-22T04:05:34;15.70;99.90
13052;DHT22;6592;47.484;9.726;2023-07-22T04:08:03;15.70;99.90
13052;DHT22;6592;47.484;9.726;2023-07-22T04:10:32;15.70;99.90
13052;DHT22;6592;47.484;9.726;2023-07-22T04:13:00;15.70;99.90
13052;DHT22;6592;47.484;9.726;2023-07-22T04:15:30;15.80;99.90
13052;DHT22;6592;47.484;9.726;2023-07-22T04:17:59;15.80;99.90
13052;DHT22;6592;47.484;9.726;2023-07-22T04:20:28;15.80;99.90
13052;DHT22;6592;47.484;9.726;2023-07-22T04:22:56;15.80;99.90
13052;DHT22;6592;47.484;9.726;2023-07-22T04:25:24;15.90;99.90
13052;DHT22;6592;47.484;9.726;2023-07-22T04:27:53;15.90;99.90
13052;DHT22;6592;47.484;9.726;2023-07-22T04:30:21;15.80;99.90
13052;DHT22;6592;47.484;9.726;2023-07-22T04:32:51;15.80;99.90
13052;DHT22;6592;47.484;9.726;2023-07-22T04:35:20;15.90;99.90
13052;DHT22;6592;47.484;9.726;2023-07-22T04:37:49;15.90;99.90
13052;DHT22;6592;47.484;9.726;2023-07-22T04:40:18;15.90;99.90
13052;DHT22;6592;47.484;9.726;2023-07-22T04:42:47;16.00;99.90
13052;DHT22;6592;47.484;9.726;2023-07-22T04:45:15;16.00;99.90
13052;DHT22;6592;47.484;9.726;2023-07-22T04:47:45;16.10;99.90
13052;DHT22;6592;47.484;9.726;2023-07-22T04:50:15;15.90;99.90
13052;DHT22;6592;47.484;9.726;2023-07-22T04:52:47;16.10;99.90
13052;DHT22;6592;47.484;9.726;2023-07-22T04:55:16;16.10;99.90
13052;DHT22;6592;47.484;9.726;2023-07-22T04:57:44;16.10;99.90
13052;DHT22;6592;47.484;9.726;2023-07-22T05:00:13;16.00;99.90
13052;DHT22;6592;47.484;9.726;2023-07-22T05:02:43;16.10;99.90
13052;DHT22;6592;47.484;9.726;2023-07-22T05:05:12;16.20;99.90
13052;DHT22;6592;47.484;9.726;2023-07-22T05:07:40;16.30;99.90
13052;DHT22;6592;47.484;9.726;2023-07-22T05:10:10;16.30;99.90
13052;DHT22;6592;47.484;9.726;2023-07-22T05:12:41;16.30;99.90
13052;DHT22;6592;47.484;9.726;2023-07-22T05:15:10;16.40;99.90
13052;DHT22;6592;47.484;9.726;2023-07-22T05:17:39;16.40;99.90
13052;DHT22;6592;47.484;9.726;2023-07-22T05:20:08;16.40;99.90
13052;DHT22;6592;47.484;9.726;2023-07-22T05:22:37;16.30;99.90
13052;DHT22;6592;47.484;9.726;2023-07-22T05:25:07;16.30;99.90
13052;DHT22;6592;47.484;9.726;2023-07-22T05:27:39;16.40;99.90
13052;DHT22;6592;47.484;9.726;2023-07-22T05:30:08;16.40;99.90
13052;DHT22;6592;47.484;9.726;2023-07-22T05:32:56;16.50;99.90
13052;DHT22;6592;47.484;9.726;2023-07-22T05:35:24;16.40;99.90
13052;DHT22;6592;47.484;9.726;2023-07-22T05:37:53;16.40;99.90
13052;DHT22;6592;47.484;9.726;2023-07-22T05:40:21;16.40;99.90
13052;DHT22;6592;47.484;9.726;2023-07-22T05:42:50;16.50;99.90
13052;DHT22;6592;47.484;9.726;2023-07-22T05:45:19;16.60;99.90
13052;DHT22;6592;47.484;9.726;2023-07-22T05:47:47;16.60;99.90
13052;DHT22;6592;47.484;9.726;2023-07-22T05:50:16;16.50;99.90
13052;DHT22;6592;47.484;9.726;2023-07-22T05:52:44;16.50;99.90
13052;DHT22;6592;47.484;9.726;2023-07-22T05:55:13;16.60;99.90
13052;DHT22;6592;47.484;9.726;2023-07-22T05:57:41;16.70;99.90
13052;DHT22;6592;47.484;9.726;2023-07-22T06:00:13;16.70;99.90
13052;DHT22;6592;47.484;9.726;2023-07-22T06:02:41;16.80;99.90
13052;DHT22;6592;47.484;9.726;2023-07-22T06:05:09;16.80;99.90
13052;DHT22;6592;47.484;9.726;2023-07-22T06:07:38;17.00;99.90
13052;DHT22;6592;47.484;9.726;2023-07-22T06:10:06;17.10;99.90
13052;DHT22;6592;47.484;9.726;2023-07-22T06:12:35;17.20;99.90
13052;DHT22;6592;47.484;9.726;2023-07-22T06:15:04;17.30;99.90
13052;DHT22;6592;47.484;9.726;2023-07-22T06:17:34;17.40;99.90
13052;DHT22;6592;47.484;9.726;2023-07-22T06:20:03;17.40;99.90
13052;DHT22;6592;47.484;9.726;2023-07-22T06:22:31;17.40;99.90
13052;DHT22;6592;47.484;9.726;2023-07-22T06:24:59;17.40;99.90
13052;DHT22;6592;47.484;9.726;2023-07-22T06:27:28;17.40;99.90
13052;DHT22;6592;47.484;9.726;2023-07-22T06:29:56;17.50;99.90
13052;DHT22;6592;47.484;9.726;2023-07-22T06:32:25;17.60;99.90
13052;DHT22;6592;47.484;9.726;2023-07-22T06:34:54;17.90;99.90
13052;DHT22;6592;47.484;9.726;2023-07-22T06:37:23;18.20;99.90
13052;DHT22;6592;47.484;9.726;2023-07-22T06:39:51;18.40;99.90
13052;DHT22;6592;47.484;9.726;2023-07-22T06:42:20;18.80;99.90
13052;DHT22;6592;47.484;9.726;2023-07-22T06:44:48;18.90;99.90
13052;DHT22;6592;47.484;9.726;2023-07-22T06:47:16;18.90;99.90
13052;DHT22;6592;47.484;9.726;2023-07-22T06:49:45;18.90;99.90
13052;DHT22;6592;47.484;9.726;2023-07-22T06:52:14;18.90;99.90
13052;DHT22;6592;47.484;9.726;2023-07-22T06:54:43;19.00;99.90
13052;DHT22;6592;47.484;9.726;2023-07-22T06:57:11;19.40;99.90
13052;DHT22;6592;47.484;9.726;2023-07-22T06:59:39;19.80;99.90
13052;DHT22;6592;47.484;9.726;2023-07-22T07:02:08;20.30;99.90
13052;DHT22;6592;47.484;9.726;2023-07-22T07:04:36;21.00;99.90
13052;DHT22;6592;47.484;9.726;2023-07-22T07:07:05;21.70;99.90
13052;DHT22;6592;47.484;9.726;2023-07-22T07:09:35;22.40;99.90
13052;DHT22;6592;47.484;9.726;2023-07-22T07:12:03;22.70;99.90
13052;DHT22;6592;47.484;9.726;2023-07-22T07:14:33;22.30;99.90
13052;DHT22;6592;47.484;9.726;2023-07-22T07:17:01;22.60;99.90
13052;DHT22;6592;47.484;9.726;2023-07-22T07:19:30;23.00;99.90
13052;DHT22;6592;47.484;9.726;2023-07-22T07:21:58;23.30;99.90
13052;DHT22;6592;47.484;9.726;2023-07-22T07:24:26;23.50;99.90
13052;DHT22;6592;47.484;9.726;2023-07-22T07:26:56;23.10;99.90
13052;DHT22;6592;47.484;9.726;2023-07-22T07:29:25;23.80;99.90
13052;DHT22;6592;47.484;9.726;2023-07-22T07:32:13;24.40;99.90
13052;DHT22;6592;47.484;9.726;2023-07-22T07:34:42;24.90;99.90
13052;DHT22;6592;47.484;9.726;2023-07-22T07:37:10;24.90;99.90
13052;DHT22;6592;47.484;9.726;2023-07-22T07:39:38;24.80;99.90
13052;DHT22;6592;47.484;9.726;2023-07-22T07:42:08;24.60;99.90
13052;DHT22;6592;47.484;9.726;2023-07-22T07:44:36;25.00;99.90
13052;DHT22;6592;47.484;9.726;2023-07-22T07:47:05;25.50;99.90
13052;DHT22;6592;47.484;9.726;2023-07-22T07:49:33;25.60;99.90
13052;DHT22;6592;47.484;9.726;2023-07-22T07:52:01;25.90;99.90
13052;DHT22;6592;47.484;9.726;2023-07-22T07:54:30;26.10;99.90
13052;DHT22;6592;47.484;9.726;2023-07-22T07:56:59;26.10;99.90
13052;DHT22;6592;47.484;9.726;2023-07-22T07:59:28;26.70;99.90
13052;DHT22;6592;47.484;9.726;2023-07-22T08:01:57;26.80;99.90
13052;DHT22;6592;47.484;9.726;2023-07-22T08:04:25;27.10;99.90
13052;DHT22;6592;47.484;9.726;2023-07-22T08:06:53;27.40;99.90
13052;DHT22;6592;47.484;9.726;2023-07-22T08:09:21;28.00;99.90
13052;DHT22;6592;47.484;9.726;2023-07-22T08:11:49;27.80;99.90
13052;DHT22;6592;47.484;9.726;2023-07-22T08:14:18;27.80;99.90
13052;DHT22;6592;47.484;9.726;2023-07-22T08:16:47;28.30;99.90
13052;DHT22;6592;47.484;9.726;2023-07-22T08:19:15;28.20;99.90
13052;DHT22;6592;47.484;9.726;2023-07-22T08:21:44;27.70;99.90
13052;DHT22;6592;47.484;9.726;2023-07-22T08:24:13;27.60;99.90
13052;DHT22;6592;47.484;9.726;2023-07-22T08:26:41;27.70;99.90
13052;DHT22;6592;47.484;9.726;2023-07-22T08:29:10;28.10;99.90
13052;DHT22;6592;47.484;9.726;2023-07-22T08:31:38;27.80;99.90
13052;DHT22;6592;47.484;9.726;2023-07-22T08:34:09;27.90;99.90
13052;DHT22;6592;47.484;9.726;2023-07-22T08:36:37;28.20;99.90
13052;DHT22;6592;47.484;9.726;2023-07-22T08:39:06;28.20;99.90
13052;DHT22;6592;47.484;9.726;2023-07-22T08:41:35;28.20;99.90
13052;DHT22;6592;47.484;9.726;2023-07-22T08:44:04;28.70;99.90
13052;DHT22;6592;47.484;9.726;2023-07-22T08:46:36;29.40;99.90
13052;DHT22;6592;47.484;9.726;2023-07-22T08:49:06;29.30;99.90
13052;DHT22;6592;47.484;9.726;2023-07-22T08:51:36;29.10;99.90
13052;DHT22;6592;47.484;9.726;2023-07-22T08:54:05;28.60;99.90
13052;DHT22;6592;47.484;9.726;2023-07-22T08:56:38;29.00;99.90
13052;DHT22;6592;47.484;9.726;2023-07-22T08:59:07;29.90;99.90
13052;DHT22;6592;47.484;9.726;2023-07-22T09:01:37;30.70;99.90
13052;DHT22;6592;47.484;9.726;2023-07-22T09:04:07;31.60;99.90
13052;DHT22;6592;47.484;9.726;2023-07-22T09:06:37;32.60;99.90
13052;DHT22;6592;47.484;9.726;2023-07-22T09:09:06;33.30;99.90
13052;DHT22;6592;47.484;9.726;2023-07-22T09:11:35;33.40;99.90
13052;DHT22;6592;47.484;9.726;2023-07-22T09:14:04;33.40;99.90
13052;DHT22;6592;47.484;9.726;2023-07-22T09:16:32;33.60;99.90
13052;DHT22;6592;47.484;9.726;2023-07-22T09:19:03;33.70;99.90
13052;DHT22;6592;47.484;9.726;2023-07-22T09:21:31;33.30;99.70
13052;DHT22;6592;47.484;9.726;2023-07-22T09:24:19;32.40;99.90
13052;DHT22;6592;47.484;9.726;2023-07-22T09:26:49;31.70;99.90
13052;DHT22;6592;47.484;9.726;2023-07-22T09:29:17;30.90;99.90
13052;DHT22;6592;47.484;9.726;2023-07-22T09:31:49;30.40;99.90
13052;DHT22;6592;47.484;9.726;2023-07-22T09:34:18;29.50;99.90
13052;DHT22;6592;47.484;9.726;2023-07-22T09:36:51;29.10;99.90
13052;DHT22;6592;47.484;9.726;2023-07-22T09:39:21;29.00;99.90
13052;DHT22;6592;47.484;9.726;2023-07-22T09:41:50;29.10;99.90
13052;DHT22;6592;47.484;9.726;2023-07-22T09:44:19;29.50;99.90
13052;DHT22;6592;47.484;9.726;2023-07-22T09:46:48;30.50;99.90
13052;DHT22;6592;47.484;9.726;2023-07-22T09:49:18;31.70;99.90
13052;DHT22;6592;47.484;9.726;2023-07-22T09:51:47;32.40;98.30
13052;DHT22;6592;47.484;9.726;2023-07-22T09:54:30;32.70;99.90
13052;DHT22;6592;47.484;9.726;2023-07-22T09:56:58;32.70;99.90
13052;DHT22;6592;47.484;9.726;2023-07-22T09:59:29;32.90;99.70
13052;DHT22;6592;47.484;9.726;2023-07-22T10:01:58;32.60;97.10
13052;DHT22;6592;47.484;9.726;2023-07-22T10:04:34;32.80;98.00
13052;DHT22;6592;47.484;9.726;2023-07-22T10:07:04;33.00;93.70
13052;DHT22;6592;47.484;9.726;2023-07-22T10:09:35;32.90;94.40
13052;DHT22;6592;47.484;9.726;2023-07-22T10:12:05;32.70;95.70
13052;DHT22;6592;47.484;9.726;2023-07-22T10:14:35;33.00;96.70
13052;DHT22;6592;47.484;9.726;2023-07-22T10:17:05;32.60;91.60
13052;DHT22;6592;47.484;9.726;2023-07-22T10:19:34;31.90;92.60
13052;DHT22;6592;47.484;9.726;2023-07-22T10:22:03;31.50;94.50
13052;DHT22;6592;47.484;9.726;2023-07-22T10:24:32;31.30;95.00
13052;DHT22;6592;47.484;9.726;2023-07-22T10:27:03;31.20;94.40
13052;DHT22;6592;47.484;9.726;2023-07-22T10:29:33;31.70;94.20
13052;DHT22;6592;47.484;9.726;2023-07-22T10:32:01;32.40;94.90
13052;DHT22;6592;47.484;9.726;2023-07-22T10:34:31;33.50;94.20
13052;DHT22;6592;47.484;9.726;2023-07-22T10:36:59;34.20;92.00
13052;DHT22;6592;47.484;9.726;2023-07-22T10:39:28;34.50;91.00
13052;DHT22;6592;47.484;9.726;2023-07-22T10:42:02;34.30;90.60
13052;DHT22;6592;47.484;9.726;2023-07-22T10:44:32;34.80;86.40
13052;DHT22;6592;47.484;9.726;2023-07-22T10:47:01;34.30;80.10
13052;DHT22;6592;47.484;9.726;2023-07-22T10:49:43;34.10;82.90
13052;DHT22;6592;47.484;9.726;2023-07-22T10:52:12;33.90;84.60
13052;DHT22;6592;47.484;9.726;2023-07-22T10:54:41;33.50;87.70
13052;DHT22;6592;47.484;9.726;2023-07-22T10:57:28;33.80;88.40
13052;DHT22;6592;47.484;9.726;2023-07-22T10:59:57;34.40;84.30
13052;DHT22;6592;47.484;9.726;2023-07-22T11:02:26;35.00;83.20
13052;DHT22;6592;47.484;9.726;2023-07-22T11:04:56;35.60;83.70
13052;DHT22;6592;47.484;9.726;2023-07-22T11:07:30;35.30;75.00
13052;DHT22;6592;47.484;9.726;2023-07-22T11:10:12;35.40;74.00
13052;DHT22;6592;47.484;9.726;2023-07-22T11:12:43;36.10;75.70
13052;DHT22;6592;47.484;9.726;2023-07-22T11:15:14;36.00;71.60
13052;DHT22;6592;47.484;9.726;2023-07-22T11:17:43;36.30;72.40
13052;DHT22;6592;47.484;9.726;2023-07-22T11:20:11;36.60;74.40
13052;DHT22;6592;47.484;9.726;2023-07-22T11:22:40;36.60;69.90
13052;DHT22;6592;47.484;9.726;2023-07-22T11:25:09;36.80;71.40
13052;DHT22;6592;47.484;9.726;2023-07-22T11:27:37;37.00;68.80
13052;DHT22;6592;47.484;9.726;2023-07-22T11:30:11;36.60;65.10
13052;DHT22;6592;47.484;9.726;2023-07-22T11:32:42;36.30;61.70
13052;DHT22;6592;47.484;9.726;2023-07-22T11:35:10;35.50;63.10
13052;DHT22;6592;47.484;9.726;2023-07-22T11:37:39;34.70;67.20
13052;DHT22;6592;47.484;9.726;2023-07-22T11:40:11;34.30;67.00
13052;DHT22;6592;47.484;9.726;2023-07-22T11:42:40;34.20;69.70
13052;DHT22;6592;47.484;9.726;2023-07-22T11:45:10;34.30;67.20
13052;DHT22;6592;47.484;9.726;2023-07-22T11:47:39;34.40;70.00
13052;DHT22;6592;47.484;9.726;2023-07-22T11:50:08;34.50;70.00
13052;DHT22;6592;47.484;9.726;2023-07-22T11:52:37;34.70;68.90
13052;DHT22;6592;47.484;9.726;2023-07-22T11:55:06;34.70;68.20
13052;DHT22;6592;47.484;9.726;2023-07-22T11:57:36;34.80;67.20
13052;DHT22;6592;47.484;9.726;2023-07-22T12:00:10;35.00;68.70
13052;DHT22;6592;47.484;9.726;2023-07-22T12:02:41;35.40;69.80
13052;DHT22;6592;47.484;9.726;2023-07-22T12:05:09;35.40;67.90
13052;DHT22;6592;47.484;9.726;2023-07-22T12:07:38;35.50;68.70
13052;DHT22;6592;47.484;9.726;2023-07-22T12:10:08;35.80;67.60
13052;DHT22;6592;47.484;9.726;2023-07-22T12:12:39;35.90;67.40
13052;DHT22;6592;47.484;9.726;2023-07-22T12:15:11;36.10;68.40
13052;DHT22;6592;47.484;9.726;2023-07-22T12:17:47;36.20;63.60
13052;DHT22;6592;47.484;9.726;2023-07-22T12:20:16;36.20;65.80
13052;DHT22;6592;47.484;9.726;2023-07-22T12:22:45;35.80;64.50
13052;DHT22;6592;47.484;9.726;2023-07-22T12:25:13;35.60;64.60
13052;DHT22;6592;47.484;9.726;2023-07-22T12:27:41;35.60;66.20
13052;DHT22;6592;47.484;9.726;2023-07-22T12:30:11;35.60;68.10
13052;DHT22;6592;47.484;9.726;2023-07-22T12:32:39;35.50;65.90
13052;DHT22;6592;47.484;9.726;2023-07-22T12:35:08;35.70;65.60
13052;DHT22;6592;47.484;9.726;2023-07-22T12:37:36;35.60;71.50
13052;DHT22;6592;47.484;9.726;2023-07-22T12:40:06;35.40;66.10
13052;DHT22;6592;47.484;9.726;2023-07-22T12:42:35;35.70;69.90
13052;DHT22;6592;47.484;9.726;2023-07-22T12:45:05;35.70;68.80
13052;DHT22;6592;47.484;9.726;2023-07-22T12:47:34;35.90;68.30
13052;DHT22;6592;47.484;9.726;2023-07-22T12:50:05;36.00;69.00
13052;DHT22;6592;47.484;9.726;2023-07-22T12:52:35;35.70;69.30
13052;DHT22;6592;47.484;9.726;2023-07-22T12:55:03;35.60;67.50
13052;DHT22;6592;47.484;9.726;2023-07-22T12:57:32;35.60;69.60
13052;DHT22;6592;47.484;9.726;2023-07-22T13:00:00;35.70;67.60
13052;DHT22;6592;47.484;9.726;2023-07-22T13:02:31;35.60;67.90
13052;DHT22;6592;47.484;9.726;2023-07-22T13:05:01;35.50;68.40
13052;DHT22;6592;47.484;9.726;2023-07-22T13:07:29;35.50;67.20
13052;DHT22;6592;47.484;9.726;2023-07-22T13:09:58;35.30;68.30
13052;DHT22;6592;47.484;9.726;2023-07-22T13:12:29;34.90;65.60
13052;DHT22;6592;47.484;9.726;2023-07-22T13:14:57;34.60;67.10
13052;DHT22;6592;47.484;9.726;2023-07-22T13:17:25;33.90;68.90
13052;DHT22;6592;47.484;9.726;2023-07-22T13:19:53;33.40;71.00
13052;DHT22;6592;47.484;9.726;2023-07-22T13:22:23;33.10;71.20
13052;DHT22;6592;47.484;9.726;2023-07-22T13:24:51;32.70;72.80
13052;DHT22;6592;47.484;9.726;2023-07-22T13:27:19;32.30;69.60
13052;DHT22;6592;47.484;9.726;2023-07-22T13:29:48;32.00;74.40
13052;DHT22;6592;47.484;9.726;2023-07-22T13:32:16;31.70;74.50
13052;DHT22;6592;47.484;9.726;2023-07-22T13:34:45;31.40;75.30
13052;DHT22;6592;47.484;9.726;2023-07-22T13:37:13;31.20;75.40
13052;DHT22;6592;47.484;9.726;2023-07-22T13:39:42;31.00;74.70
13052;DHT22;6592;47.484;9.726;2023-07-22T13:42:11;30.70;77.10
13052;DHT22;6592;47.484;9.726;2023-07-22T13:44:39;30.50;79.90
13052;DHT22;6592;47.484;9.726;2023-07-22T13:47:07;30.40;79.10
13052;DHT22;6592;47.484;9.726;2023-07-22T13:49:35;30.40;74.70
13052;DHT22;6592;47.484;9.726;2023-07-22T13:52:04;30.30;78.80
13052;DHT22;6592;47.484;9.726;2023-07-22T13:54:32;30.10;76.40
13052;DHT22;6592;47.484;9.726;2023-07-22T13:57:02;30.00;80.10
13052;DHT22;6592;47.484;9.726;2023-07-22T13:59:30;30.00;78.10
13052;DHT22;6592;47.484;9.726;2023-07-22T14:01:59;29.80;76.40
13052;DHT22;6592;47.484;9.726;2023-07-22T14:04:27;29.60;74.00
13052;DHT22;6592;47.484;9.726;2023-07-22T14:06:55;29.70;77.60
13052;DHT22;6592;47.484;9.726;2023-07-22T14:09:23;29.60;76.50
13052;DHT22;6592;47.484;9.726;2023-07-22T14:11:52;29.70;79.20
13052;DHT22;6592;47.484;9.726;2023-07-22T14:14:21;29.70;80.60
13052;DHT22;6592;47.484;9.726;2023-07-22T14:16:56;29.80;79.10
13052;DHT22;6592;47.484;9.726;2023-07-22T14:19:24;29.90;80.80
13052;DHT22;6592;47.484;9.726;2023-07-22T14:21:52;29.80;82.50
13052;DHT22;6592;47.484;9.726;2023-07-22T14:24:21;29.60;83.90
13052;DHT22;6592;47.484;9.726;2023-07-22T14:26:49;29.60;82.80
13052;DHT22;6592;47.484;9.726;2023-07-22T14:29:17;29.60;82.80
13052;DHT22;6592;47.484;9.726;2023-07-22T14:31:47;29.60;82.50
13052;DHT22;6592;47.484;9.726;2023-07-22T14:34:15;29.60;81.00
13052;DHT22;6592;47.484;9.726;2023-07-22T14:36:43;29.60;82.50
13052;DHT22;6592;47.484;9.726;2023-07-22T14:39:11;29.60;82.60
13052;DHT22;6592;47.484;9.726;2023-07-22T14:41:41;29.60;80.60
13052;DHT22;6592;47.484;9.726;2023-07-22T14:44:10;29.60;81.80
13052;DHT22;6592;47.484;9.726;2023-07-22T14:46:38;29.60;83.80
13052;DHT22;6592;47.484;9.726;2023-07-22T14:49:08;29.60;81.10
13052;DHT22;6592;47.484;9.726;2023-07-22T14:51:36;29.60;82.90
13052;DHT22;6592;47.484;9.726;2023-07-22T14:54:05;29.60;82.30
13052;DHT22;6592;47.484;9.726;2023-07-22T14:56:33;29.50;84.90
13052;DHT22;6592;47.484;9.726;2023-07-22T14:59:01;29.40;82.10
13052;DHT22;6592;47.484;9.726;2023-07-22T15:01:37;29.50;84.80
13052;DHT22;6592;47.484;9.726;2023-07-22T15:04:05;29.40;82.60
13052;DHT22;6592;47.484;9.726;2023-07-22T15:06:35;29.30;84.20
13052;DHT22;6592;47.484;9.726;2023-07-22T15:09:03;29.10;83.70
13052;DHT22;6592;47.484;9.726;2023-07-22T15:11:34;29.20;87.10
13052;DHT22;6592;47.484;9.726;2023-07-22T15:14:02;29.20;85.30
13052;DHT22;6592;47.484;9.726;2023-07-22T15:16:31;29.20;84.00
13052;DHT22;6592;47.484;9.726;2023-07-22T15:18:59;29.10;83.30
13052;DHT22;6592;47.484;9.726;2023-07-22T15:21:28;29.00;81.90
13052;DHT22;6592;47.484;9.726;2023-07-22T15:23:57;29.00;85.50
13052;DHT22;6592;47.484;9.726;2023-07-22T15:26:26;29.00;84.90
13052;DHT22;6592;47.484;9.726;2023-07-22T15:28:54;29.00;86.60
13052;DHT22;6592;47.484;9.726;2023-07-22T15:31:22;28.90;86.70
13052;DHT22;6592;47.484;9.726;2023-07-22T15:33:51;29.00;85.00
13052;DHT22;6592;47.484;9.726;2023-07-22T15:36:19;29.10;82.20
13052;DHT22;6592;47.484;9.726;2023-07-22T15:38:47;29.10;81.40
13052;DHT22;6592;47.484;9.726;2023-07-22T15:41:17;28.90;84.10
13052;DHT22;6592;47.484;9.726;2023-07-22T15:43:45;28.70;85.70
13052;DHT22;6592;47.484;9.726;2023-07-22T15:46:13;28.60;84.80
13052;DHT22;6592;47.484;9.726;2023-07-22T15:48:41;28.50;87.10
13052;DHT22;6592;47.484;9.726;2023-07-22T15:51:10;28.40;88.00
13052;DHT22;6592;47.484;9.726;2023-07-22T15:53:38;28.40;88.10
13052;DHT22;6592;47.484;9.726;2023-07-22T15:56:07;28.50;86.50
13052;DHT22;6592;47.484;9.726;2023-07-22T15:58:36;28.60;86.00